Friday, June 22, 2018, 3:25 AM EDT
Back to Local

KOXC, Oxford, Waterbury-oxford Airport

Location: Oxford, CT, United States Lat: 41.483
Local Time: 3:25 AM EDT ( 7:25 GMT) Lon: -73.133
Time Zone: US/Eastern Elev: 725 ft

Show me the last for .
Show Decoded

2018-06-22 02:51 METAR KOXC 220651Z AUTO 04006KT 10SM CLR 17/09 A2994 RMK AO2 SLP148 T01670094 =
2018-06-22 01:51 METAR KOXC 220551Z AUTO 04003KT 10SM FEW023 BKN030 17/16 A2993 RMK AO2 SLP143
                 T01720156 10250 20167 51010 =
2018-06-22 00:51 METAR KOXC 220451Z AUTO 00000KT 10SM FEW029 SCT038 17/16 A2992 RMK AO2 SLP141
                 T01720161 402890167 =
2018-06-21 23:51 METAR KOXC 220351Z AUTO 00000KT 10SM CLR 18/16 A2991 RMK AO2 SLP137 T01780161 =
2018-06-21 22:51 METAR KOXC 220251Z AUTO 00000KT 10SM FEW070 19/16 A2990 RMK AO2 SLP132 T01940161
                 51027 =
2018-06-21 21:51 METAR KOXC 220151Z AUTO 16005KT 10SM BKN075 21/17 A2988 RMK AO2 SLP127 T02110167
                 =
2018-06-21 20:51 METAR KOXC 220051Z 36006KT 10SM FEW060 SCT080 23/15 A2984 RMK AO2 SLP113
                 T02280150 =
2018-06-21 19:51 METAR KOXC 212351Z 01006KT 10SM SCT090 25/15 A2982 RMK AO2 SLP104 T02500150
                 10289 20250 53015 =
2018-06-21 18:51 METAR KOXC 212251Z 03007KT 10SM SCT100 27/14 A2981 RMK AO2 SLP100 T02670144 =
2018-06-21 17:51 METAR KOXC 212151Z 34010KT 10SM SCT060 28/14 A2978 RMK AO2 SLP092 T02830139 =
2018-06-21 16:51 METAR KOXC 212051Z 02005KT 10SM SCT070 28/14 A2978 RMK AO2 SLP089 T02830139
                 56005 =
2018-06-21 15:51 METAR KOXC 211951Z 35006KT 10SM SCT060 28/13 A2978 RMK AO2 SLP089 T02780128 =
2018-06-21 14:51 METAR KOXC 211851Z 01007KT 10SM SCT060 27/12 A2978 RMK AO2 SLP091 T02720122 =
2018-06-21 13:51 METAR KOXC 211751Z 03009KT 10SM CLR 27/13 A2979 RMK AO2 SLP094 T02670128 10272
                 20189 58007 =
2018-06-21 12:51 METAR KOXC 211651Z 03008KT 360V070 10SM SCT035 26/13 A2980 RMK AO2 SLP096
                 T02610128 =
2018-06-21 11:51 METAR KOXC 211551Z VRB06KT 9SM SCT025 25/14 A2981 RMK AO2 SLP100 T02500139 =
2018-06-21 10:51 METAR KOXC 211451Z VRB04KT 10SM SCT019 24/16 A2981 RMK AO2 SLP102 T02390156
                 51005 =
2018-06-21 09:51 METAR KOXC 211351Z 00000KT 10SM SCT015 21/17 A2981 RMK AO2 SLP101 T02060172 =
2018-06-21 08:51 METAR KOXC 211251Z VRB03KT 10SM FEW005 20/17 A2980 RMK AO2 SLP099 T02000172 =
2018-06-21 07:51 METAR KOXC 211151Z 00000KT 6SM BR FEW003 BKN120 18/18 A2980 RMK AO2 SLP096 60000
                 70002 T01830178 10183 20172 51006 =
2018-06-21 06:51 METAR KOXC 211051Z 00000KT 7SM SCT065 BKN095 18/17 A2979 RMK AO2 SLP094
                 T01780172 =
2018-06-21 05:51 METAR KOXC 210951Z 00000KT 7SM BKN060 18/17 A2979 RMK AO2 SLP095 T01780172 =
2018-06-21 04:51 METAR KOXC 210851Z 00000KT 10SM OVC060 18/17 A2978 RMK AO2 SLP090 60000
                 T01780172 56014 =
2018-06-21 03:51 METAR KOXC 210751Z 00000KT 10SM OVC065 18/17 A2978 RMK AO2 SLP090 T01780172 =

Support USWX by starting your Amazon purchase here.